Time;durP1;ratioP1;P1;durP2;ratioP2;P2;SDS_P1;SDS_P2;PMS_P1;PMS_P2;Temp;Humidity;BMP_temperature;BMP_pressure;BME280_temperature;BME280_humidity;BME280_pressure;Samples;Min_cycle;Max_cycle;Signal;HPM_P1;HPM_P2
2021/12/20 00:02:20;;;;;;;10.98;8.90;;;;;;;5.95;65.05;100800.44;10405543;28;20045;-66
2021/12/20 00:07:22;;;;;;;10.35;8.90;;;;;;;5.96;64.93;100802.13;10403026;28;20473;-66
2021/12/20 00:12:24;;;;;;;12.52;9.40;;;;;;;5.91;64.94;100795.38;10405595;28;20055;-66
2021/12/20 00:17:30;;;;;;;12.50;9.40;;;;;;;6.03;64.62;100793.28;10405247;28;20059;-66
2021/12/20 00:22:32;;;;;;;12.50;9.07;;;;;;;5.96;64.78;100796.94;10405513;28;20049;-66
2021/12/20 00:27:33;;;;;;;12.13;9.68;;;;;;;5.99;64.65;100790.81;10404211;28;20094;-66
2021/12/20 00:32:35;;;;;;;14.02;8.75;;;;;;;5.97;64.51;100788.28;10420108;28;20121;-65
2021/12/20 00:43:00;;;;;;;9.63;7.43;;;;;;;6.05;63.95;100794.09;10404328;28;20405;-66
2021/12/20 00:48:03;;;;;;;11.35;6.38;;;;;;;6.12;63.33;100787.00;10404033;28;20400;-66
2021/12/20 00:53:12;;;;;;;11.80;5.75;;;;;;;6.15;62.64;100786.91;10404275;28;20504;-66
2021/12/20 00:58:14;;;;;;;11.85;5.43;;;;;;;6.18;62.48;100787.69;10403554;28;20045;-66
2021/12/20 01:03:16;;;;;;;9.20;5.85;;;;;;;6.22;62.07;100794.50;10404016;28;20064;-65
2021/12/20 01:08:20;;;;;;;11.00;5.68;;;;;;;6.26;61.99;100790.97;10402677;28;20509;-65
2021/12/20 01:13:28;;;;;;;11.73;5.15;;;;;;;6.31;61.51;100783.00;10403480;28;20050;-65
2021/12/20 01:18:29;;;;;;;9.63;4.45;;;;;;;6.16;60.82;100784.28;10403287;28;20059;-65
2021/12/20 01:23:31;;;;;;;8.75;4.35;;;;;;;6.22;60.92;100789.31;10403337;28;20088;-65
2021/12/20 01:28:33;;;;;;;12.80;4.55;;;;;;;6.21;60.43;100785.00;10401879;28;20053;-65
2021/12/20 01:33:36;;;;;;;10.20;4.32;;;;;;;6.30;60.38;100787.38;10403307;28;20052;-65
2021/12/20 01:38:37;;;;;;;9.35;4.93;;;;;;;6.33;60.44;100795.06;10403065;28;20509;-65
2021/12/20 01:43:39;;;;;;;10.43;5.50;;;;;;;6.33;60.51;100787.25;10402919;28;20569;-65
2021/12/20 01:48:43;;;;;;;10.43;5.50;;;;;;;6.36;60.51;100791.53;10403076;28;20045;-65
2021/12/20 01:53:45;;;;;;;11.88;6.65;;;;;;;6.46;60.95;100792.97;10403089;28;20053;-66
2021/12/20 01:58:47;;;;;;;21.38;9.20;;;;;;;6.43;60.70;100776.63;10402175;28;20069;-65
2021/12/20 02:03:55;;;;;;;14.95;8.57;;;;;;;6.53;60.76;100778.88;10403147;28;20056;-65
2021/12/20 02:09:01;;;;;;;11.75;5.97;;;;;;;6.51;60.61;100785.88;10401690;28;20056;-65
2021/12/20 02:14:05;;;;;;;9.70;5.18;;;;;;;6.38;60.93;100794.06;10405643;28;20424;-65
2021/12/20 02:19:10;;;;;;;9.73;5.53;;;;;;;6.32;61.08;100792.50;10409940;28;20480;-65
2021/12/20 02:24:13;;;;;;;12.80;6.78;;;;;;;6.29;60.95;100784.78;10409669;28;20072;-65
2021/12/20 02:29:15;;;;;;;12.43;7.13;;;;;;;6.30;61.30;100782.19;10409743;28;20052;-66
2021/12/20 02:39:38;;;;;;;13.43;7.57;;;;;;;6.22;61.58;100778.06;10409097;28;20076;-65
2021/12/20 02:44:59;;;;;;;13.40;7.28;;;;;;;6.27;61.21;100779.66;10407614;28;20041;-65
2021/12/20 02:50:01;;;;;;;11.32;7.50;;;;;;;6.28;61.54;100773.56;10408500;28;20140;-65
2021/12/20 02:55:04;;;;;;;11.95;6.75;;;;;;;6.37;60.99;100779.41;10408171;28;20057;-65
2021/12/20 03:00:09;;;;;;;15.73;6.93;;;;;;;6.30;60.46;100784.78;10400823;28;20506;-65
2021/12/20 03:05:12;;;;;;;12.68;5.82;;;;;;;6.27;60.50;100786.59;10416587;28;20128;-65
2021/12/20 03:10:15;;;;;;;12.20;6.10;;;;;;;6.22;60.55;100776.31;10415531;28;20054;-65
2021/12/20 03:15:22;;;;;;;12.20;5.90;;;;;;;6.20;60.39;100785.91;10392800;28;20128;-65
2021/12/20 03:20:24;;;;;;;10.52;5.20;;;;;;;6.31;60.34;100773.47;10374203;28;20465;-65
2021/12/20 03:25:26;;;;;;;11.27;6.97;;;;;;;6.18;60.81;100774.69;10414273;28;20413;-65
2021/12/20 03:30:28;;;;;;;12.00;7.45;;;;;;;6.19;61.05;100785.91;10414784;28;20136;-65
2021/12/20 03:35:29;;;;;;;17.48;7.82;;;;;;;6.17;60.95;100779.91;10413491;28;20045;-65
2021/12/20 03:40:32;;;;;;;14.88;7.78;;;;;;;6.09;61.35;100772.34;10414750;28;20129;-65
2021/12/20 03:45:36;;;;;;;17.48;8.75;;;;;;;6.12;61.48;100779.22;10414188;28;20136;-65
2021/12/20 03:50:37;;;;;;;16.05;8.70;;;;;;;6.13;61.65;100776.56;10414209;28;20059;-65
2021/12/20 03:55:39;;;;;;;19.05;8.48;;;;;;;6.06;61.53;100780.22;10414402;28;20133;-65
2021/12/20 04:00:41;;;;;;;18.05;8.93;;;;;;;5.94;61.53;100784.91;10414064;28;20059;-66
2021/12/20 04:05:43;;;;;;;18.77;8.98;;;;;;;6.05;61.66;100785.47;10409319;28;20045;-66
2021/12/20 04:10:44;;;;;;;15.95;8.80;;;;;;;6.08;61.56;100778.44;10406457;28;20175;-65
2021/12/20 04:15:46;;;;;;;19.73;8.38;;;;;;;6.10;61.61;100791.38;10405725;28;20088;-66
2021/12/20 04:20:48;;;;;;;17.73;8.55;;;;;;;6.00;61.71;100788.16;10406298;28;20537;-65
2021/12/20 04:25:50;;;;;;;17.27;8.43;;;;;;;6.06;61.83;100784.59;10406265;28;20115;-66
2021/12/20 04:30:51;;;;;;;17.52;7.95;;;;;;;6.11;61.76;100780.09;10405618;28;20081;-66
2021/12/20 04:35:53;;;;;;;23.15;8.48;;;;;;;6.13;61.78;100770.50;10405303;28;20362;-65
2021/12/20 04:40:55;;;;;;;14.05;7.85;;;;;;;6.13;61.79;100779.16;10405555;28;20128;-66
2021/12/20 04:45:57;;;;;;;16.52;7.65;;;;;;;6.03;61.99;100782.06;10405733;28;20061;-66
2021/12/20 04:50:58;;;;;;;14.23;6.93;;;;;;;6.07;61.87;100783.66;10405247;28;20145;-66
2021/12/20 04:56:00;;;;;;;15.98;6.13;;;;;;;5.96;61.60;100788.31;10405181;28;20141;-66
2021/12/20 05:01:02;;;;;;;15.88;5.75;;;;;;;5.99;60.99;100786.50;10420035;28;20073;-66
2021/12/20 05:06:04;;;;;;;14.45;5.50;;;;;;;5.98;61.04;100791.72;10405173;28;20056;-66
2021/12/20 05:11:06;;;;;;;18.00;5.78;;;;;;;5.91;61.12;100803.16;10404449;28;20145;-66
2021/12/20 05:16:08;;;;;;;12.43;4.70;;;;;;;5.82;60.63;100804.25;10404118;28;20060;-66
2021/12/20 05:21:09;;;;;;;11.23;4.38;;;;;;;5.73;60.42;100799.31;10419433;28;20244;-67
2021/12/20 05:26:11;;;;;;;13.82;4.78;;;;;;;5.74;60.30;100805.38;10404528;28;20060;-66
2021/12/20 05:31:13;;;;;;;14.60;4.63;;;;;;;5.68;60.11;100816.75;10404076;28;20057;-66
2021/12/20 05:36:15;;;;;;;11.93;4.75;;;;;;;5.75;60.47;100815.69;10403167;28;20148;-66
2021/12/20 05:41:21;;;;;;;13.55;4.78;;;;;;;5.78;60.21;100807.81;10404011;28;20386;-67
2021/12/20 05:46:23;;;;;;;18.00;5.05;;;;;;;5.83;60.59;100815.50;10405750;28;20563;-66
2021/12/20 05:51:25;;;;;;;14.23;4.05;;;;;;;5.77;59.70;100813.91;10411879;28;20053;-67
2021/12/20 05:56:27;;;;;;;13.95;4.45;;;;;;;5.63;59.64;100822.94;10412069;28;20107;-66
2021/12/20 06:01:29;;;;;;;18.10;4.68;;;;;;;5.54;59.72;100824.03;10411150;28;20457;-66
2021/12/20 06:06:32;;;;;;;11.30;4.10;;;;;;;5.52;59.91;100829.25;10411131;28;20461;-66
2021/12/20 06:11:33;;;;;;;17.13;4.10;;;;;;;5.33;60.23;100842.72;10411339;28;20537;-66
2021/12/20 06:16:36;;;;;;;12.23;4.22;;;;;;;5.04;60.36;100832.16;10426096;28;20053;-67
2021/12/20 06:21:37;;;;;;;18.27;4.30;;;;;;;4.68;60.87;100845.03;10410746;28;20164;-67
2021/12/20 06:26:39;;;;;;;13.77;3.75;;;;;;;4.44;60.86;100857.66;10410125;28;20042;-67
2021/12/20 06:31:41;;;;;;;15.68;4.07;;;;;;;4.35;61.55;100860.44;10409988;28;20065;-67
2021/12/20 06:36:44;;;;;;;16.65;4.05;;;;;;;4.24;61.86;100862.38;10409839;28;20577;-67
2021/12/20 06:41:45;;;;;;;12.70;3.83;;;;;;;4.03;61.82;100868.78;10410477;28;20050;-67
2021/12/20 06:46:48;;;;;;;18.30;4.25;;;;;;;3.91;62.33;100884.53;10409389;28;20509;-67
2021/12/20 06:51:49;;;;;;;15.88;3.60;;;;;;;3.98;62.45;100880.97;10409495;28;20060;-67
2021/12/20 06:56:51;;;;;;;18.40;3.97;;;;;;;4.00;62.04;100889.56;10409573;28;20045;-68
2021/12/20 07:01:53;;;;;;;14.30;3.78;;;;;;;3.86;61.96;100892.38;10409122;28;20052;-68
2021/12/20 07:06:55;;;;;;;15.65;3.80;;;;;;;3.72;61.95;100901.25;10409823;28;20051;-68
2021/12/20 07:11:56;;;;;;;13.60;4.07;;;;;;;3.65;62.16;100907.38;10408602;28;20076;-68
2021/12/20 07:16:58;;;;;;;14.48;4.07;;;;;;;3.56;62.41;100908.38;10408497;28;20125;-68
2021/12/20 07:22:00;;;;;;;16.33;4.10;;;;;;;3.44;62.58;100907.72;10423387;28;20124;-68
2021/12/20 07:27:02;;;;;;;12.85;3.88;;;;;;;3.46;63.01;100908.53;10408629;28;20107;-68
2021/12/20 07:32:05;;;;;;;12.55;4.00;;;;;;;3.47;63.19;100910.25;10407620;28;20053;-68
2021/12/20 07:37:07;;;;;;;24.52;6.82;;;;;;;3.37;63.11;100921.63;10408371;28;20058;-67
2021/12/20 07:42:09;;;;;;;22.60;7.72;;;;;;;3.31;63.41;100921.72;10406821;28;20397;-67
2021/12/20 07:47:11;;;;;;;15.35;5.68;;;;;;;3.28;63.58;100926.91;10407919;28;20517;-68
2021/12/20 07:52:13;;;;;;;15.18;4.60;;;;;;;3.20;63.17;100934.78;10406980;28;20088;-68
2021/12/20 07:57:14;;;;;;;20.40;6.55;;;;;;;3.10;63.28;100945.25;10406720;28;20136;-68
2021/12/20 08:02:16;;;;;;;19.98;6.28;;;;;;;3.07;63.66;100946.16;10406678;28;20080;-68
2021/12/20 08:07:21;;;;;;;17.63;5.88;;;;;;;3.07;63.63;100954.78;10405079;28;20037;-68
2021/12/20 08:12:23;;;;;;;17.10;4.82;;;;;;;3.14;63.91;100952.97;10405242;28;20149;-68
2021/12/20 08:17:25;;;;;;;19.15;5.03;;;;;;;3.21;63.76;100952.03;10366976;28;20062;-68
2021/12/20 08:22:27;;;;;;;19.92;6.75;;;;;;;3.32;64.03;100963.06;10394352;28;20045;-67
2021/12/20 08:27:29;;;;;;;25.42;8.98;;;;;;;3.44;64.07;100959.44;10405821;28;20136;-67
2021/12/20 08:32:31;;;;;;;26.08;10.10;;;;;;;3.52;63.80;100973.09;10404509;28;20553;-68
2021/12/20 08:37:33;;;;;;;27.55;9.82;;;;;;;3.66;63.64;100973.78;10404343;28;20046;-68
2021/12/20 08:42:35;;;;;;;28.52;9.40;;;;;;;3.64;63.11;100978.94;10406443;28;20091;-68
2021/12/20 08:47:38;;;;;;;33.47;8.25;;;;;;;3.72;63.20;100976.28;10405585;28;20083;-68
2021/12/20 08:52:40;;;;;;;19.15;5.78;;;;;;;3.74;62.96;100980.53;10405423;28;20129;-67
2021/12/20 08:57:43;;;;;;;20.30;5.13;;;;;;;3.75;62.74;100978.78;10404835;28;20486;-68
2021/12/20 09:02:48;;;;;;;24.38;5.43;;;;;;;3.64;62.50;100991.88;10405130;28;20049;-68
2021/12/20 09:07:50;;;;;;;22.90;4.85;;;;;;;3.62;62.46;100993.63;10396331;28;20052;-68
2021/12/20 09:12:52;;;;;;;24.60;5.15;;;;;;;3.68;62.31;100996.13;10397359;28;20140;-67
2021/12/20 09:17:54;;;;;;;27.33;5.03;;;;;;;3.68;61.97;100996.13;10397699;28;20049;-73
2021/12/20 09:23:03;;;;;;;27.50;5.53;;;;;;;3.65;61.71;101003.09;10400746;28;20041;-73
2021/12/20 09:28:09;;;;;;;25.90;5.45;;;;;;;3.67;61.79;101007.38;10399480;28;20141;-74
2021/12/20 09:33:11;;;;;;;21.02;4.43;;;;;;;3.65;61.75;101011.72;10402050;28;20055;-73
2021/12/20 09:38:16;;;;;;;26.58;5.72;;;;;;;3.71;61.61;101014.22;10402187;28;20053;-73
2021/12/20 09:43:20;;;;;;;26.80;4.68;;;;;;;3.97;61.34;101007.81;10402066;28;20377;-73
2021/12/20 09:48:23;;;;;;;22.35;4.68;;;;;;;3.98;60.69;101023.31;10401918;28;20731;-74
2021/12/20 09:53:25;;;;;;;22.88;5.22;;;;;;;4.04;60.64;101020.66;10418132;28;20049;-73
2021/12/20 09:58:27;;;;;;;22.05;4.60;;;;;;;4.07;60.47;101030.09;10402043;28;20049;-74
2021/12/20 10:03:29;;;;;;;24.27;4.80;;;;;;;4.10;60.69;101017.09;10411547;28;20480;-75
2021/12/20 10:08:33;;;;;;;23.35;5.38;;;;;;;4.04;60.49;101014.59;10403748;28;20488;-76
2021/12/20 10:13:37;;;;;;;17.08;4.28;;;;;;;4.13;60.08;101023.06;10401064;28;20140;-75
2021/12/20 10:18:39;;;;;;;22.90;5.10;;;;;;;4.14;59.94;101017.03;10402698;28;20060;-74
2021/12/20 10:23:46;;;;;;;25.10;4.95;;;;;;;4.18;59.67;101018.69;10402088;28;20701;-76
2021/12/20 10:28:52;;;;;;;21.95;4.07;;;;;;;4.16;59.98;101007.50;10398983;28;20053;-75
2021/12/20 10:33:57;;;;;;;24.73;4.65;;;;;;;4.19;58.71;101015.19;10403229;28;20095;-73
2021/12/20 10:39:03;;;;;;;17.65;3.60;;;;;;;4.35;58.40;101003.69;10407678;28;20065;-73
2021/12/20 10:44:19;;;;;;;16.73;3.83;;;;;;;4.32;57.40;101008.94;10409341;28;20403;-72
2021/12/20 10:49:28;;;;;;;19.20;3.95;;;;;;;4.32;57.56;101005.50;10408130;28;20482;-74
2021/12/20 10:54:32;;;;;;;14.57;3.42;;;;;;;4.37;57.62;100995.94;10409060;28;20046;-73
2021/12/20 10:59:36;;;;;;;15.10;3.40;;;;;;;4.39;57.28;100996.75;10409165;28;20053;-74
2021/12/20 11:04:59;;;;;;;19.42;3.58;;;;;;;4.22;56.53;100998.75;10409633;28;20137;-71
2021/12/20 11:10:05;;;;;;;16.10;3.55;;;;;;;4.30;55.05;100986.53;10410369;28;20056;-74
2021/12/20 11:15:10;;;;;;;13.50;3.03;;;;;;;4.15;55.88;100990.25;10409146;28;20318;-75
2021/12/20 11:20:20;;;;;;;12.43;3.13;;;;;;;4.25;54.89;100994.38;10409223;28;20537;-74
2021/12/20 11:25:22;;;;;;;16.08;3.30;;;;;;;4.38;55.74;100989.84;10409770;28;20107;-74
2021/12/20 11:30:26;;;;;;;16.48;3.35;;;;;;;4.34;54.80;100986.47;10408140;28;20114;-74
2021/12/20 11:35:28;;;;;;;14.90;3.20;;;;;;;4.41;54.53;100975.09;10408819;28;20049;-73
2021/12/20 11:40:30;;;;;;;16.17;3.40;;;;;;;4.54;54.42;100980.91;10407784;28;20478;-72
2021/12/20 11:45:34;;;;;;;13.10;3.15;;;;;;;4.52;54.35;100964.56;10408451;28;20128;-72
2021/12/20 11:50:39;;;;;;;13.88;2.80;;;;;;;4.66;53.39;100965.13;10407300;28;20519;-72
2021/12/20 11:55:54;;;;;;;12.55;2.90;;;;;;;4.70;52.77;100971.97;10406607;28;20054;-72
2021/12/20 12:00:58;;;;;;;13.00;2.70;;;;;;;4.75;53.66;100970.16;10407613;28;20087;-73
2021/12/20 12:06:05;;;;;;;11.70;2.83;;;;;;;4.67;52.37;100964.28;10406292;28;20081;-74
2021/12/20 12:11:07;;;;;;;12.15;2.72;;;;;;;4.80;52.64;100967.47;10406673;28;20111;-73
2021/12/20 12:16:26;;;;;;;13.73;2.90;;;;;;;4.81;52.94;100953.63;10407211;28;20057;-74
2021/12/20 12:21:34;;;;;;;12.93;2.90;;;;;;;4.88;52.34;100957.81;10407506;28;20053;-73
2021/12/20 12:26:50;;;;;;;11.48;2.90;;;;;;;4.98;52.36;100949.81;10405499;28;20084;-73
2021/12/20 12:32:01;;;;;;;11.00;2.47;;;;;;;5.09;50.87;100941.78;10406395;28;20049;-72
2021/12/20 12:37:29;;;;;;;12.17;2.47;;;;;;;4.93;49.55;100943.00;10405345;28;20476;-73
2021/12/20 12:42:46;;;;;;;10.60;2.60;;;;;;;5.00;49.68;100939.41;10404315;28;20056;-72
2021/12/20 12:47:57;;;;;;;13.60;2.70;;;;;;;5.06;50.54;100940.16;10405021;28;20052;-72
2021/12/20 12:52:59;;;;;;;8.20;2.15;;;;;;;4.99;48.81;100935.97;10405683;28;20063;-73
2021/12/20 12:58:20;;;;;;;8.15;2.47;;;;;;;4.85;46.96;100930.22;10404575;28;20459;-75
2021/12/20 13:03:24;;;;;;;7.75;2.15;;;;;;;4.86;47.97;100933.66;10405443;28;20042;-74
2021/12/20 13:08:26;;;;;;;8.77;1.92;;;;;;;4.91;48.48;100939.59;10404023;28;20089;-74
2021/12/20 13:13:31;;;;;;;7.18;2.08;;;;;;;4.88;47.79;100931.91;10404690;28;20123;-73
2021/12/20 13:18:36;;;;;;;8.30;2.28;;;;;;;4.91;48.60;100935.28;10404680;28;20091;-73
2021/12/20 13:23:46;;;;;;;13.02;2.42;;;;;;;4.99;47.46;100938.56;10404762;28;20053;-73
2021/12/20 13:28:51;;;;;;;10.80;2.25;;;;;;;5.03;47.71;100934.16;10405323;28;20493;-73
2021/12/20 13:33:59;;;;;;;10.90;2.20;;;;;;;5.00;47.75;100929.91;10403328;28;20569;-74
2021/12/20 13:39:09;;;;;;;9.93;2.50;;;;;;;4.89;46.51;100931.00;10398008;28;20041;-73
2021/12/20 13:44:20;;;;;;;13.10;2.50;;;;;;;4.91;47.05;100927.50;10403424;28;20560;-74
2021/12/20 13:49:21;;;;;;;6.23;2.10;;;;;;;4.97;48.56;100922.19;10403985;28;20061;-74
2021/12/20 13:54:40;;;;;;;8.43;2.10;;;;;;;4.81;47.01;100920.78;10404034;28;20061;-74
2021/12/20 13:59:53;;;;;;;9.93;2.75;;;;;;;4.87;46.53;100927.59;10404025;28;20096;-73
2021/12/20 14:05:10;;;;;;;9.40;2.72;;;;;;;4.89;47.79;100928.41;10417372;28;20129;-74
2021/12/20 14:10:18;;;;;;;8.82;2.35;;;;;;;4.90;47.17;100924.94;10368746;28;20150;-73
2021/12/20 14:15:22;;;;;;;12.20;2.22;;;;;;;4.76;47.03;100920.03;10369530;28;20078;-74
2021/12/20 14:20:50;;;;;;;7.05;1.77;;;;;;;4.66;46.74;100923.69;10370180;28;20077;-73
2021/12/20 14:26:06;;;;;;;10.52;2.58;;;;;;;4.57;46.06;100916.09;10369602;28;20057;-73
2021/12/20 14:31:16;;;;;;;9.57;2.38;;;;;;;4.43;48.03;100929.31;10370152;28;20045;-77
2021/12/20 14:36:20;;;;;;;10.70;2.63;;;;;;;4.48;49.09;100932.69;10368381;28;20042;-77
2021/12/20 14:41:29;;;;;;;8.77;2.92;;;;;;;4.42;48.34;100925.03;10384892;28;20054;-76
2021/12/20 14:46:51;;;;;;;9.88;3.40;;;;;;;4.28;47.99;100927.03;10367959;28;20124;-76
2021/12/20 14:51:53;;;;;;;7.38;2.22;;;;;;;4.20;48.54;100931.50;10368679;28;20530;-73
2021/12/20 14:56:57;;;;;;;6.53;1.95;;;;;;;4.05;48.88;100925.75;10368195;28;20136;-75
2021/12/20 15:02:06;;;;;;;7.38;2.47;;;;;;;3.90;49.90;100926.84;10368433;28;20137;-73
2021/12/20 15:07:08;;;;;;;7.95;2.22;;;;;;;3.76;50.08;100936.53;10367399;28;20134;-74
2021/12/20 15:12:10;;;;;;;7.45;2.45;;;;;;;3.62;50.48;100935.91;10364263;28;20042;-74
2021/12/20 15:17:12;;;;;;;10.43;2.47;;;;;;;3.43;50.55;100932.75;10380217;28;20071;-74
2021/12/20 15:22:14;;;;;;;8.68;2.33;;;;;;;3.19;50.86;100943.44;10405877;28;20049;-74
2021/12/20 15:27:15;;;;;;;6.97;2.20;;;;;;;3.10;50.95;100932.34;10407885;28;20139;-74
2021/12/20 15:32:17;;;;;;;12.60;2.70;;;;;;;3.01;51.38;100933.31;10407309;28;20053;-74
2021/12/20 15:37:19;;;;;;;7.10;2.10;;;;;;;2.82;52.00;100922.38;10406991;28;20482;-73
2021/12/20 15:42:30;;;;;;;12.80;4.93;;;;;;;2.68;52.52;100924.25;10407150;28;20545;-73
2021/12/20 15:47:31;;;;;;;15.40;6.20;;;;;;;2.45;53.21;100925.41;10408943;28;20505;-74
2021/12/20 15:52:33;;;;;;;13.75;4.93;;;;;;;2.29;53.81;100918.69;10406175;28;20579;-73
2021/12/20 15:57:55;;;;;;;;;;;;;;;1.88;55.35;100921.66;10407752;28;20049;-73
2021/12/20 16:02:56;;;;;;;9.38;3.65;;;;;;;1.94;54.78;100925.06;10407872;28;19979;-75
2021/12/20 16:07:58;;;;;;;8.18;3.65;;;;;;;1.87;55.03;100925.97;10406697;28;20495;-74
2021/12/20 16:13:23;;;;;;;12.38;3.72;;;;;;;1.77;55.66;100932.06;10406947;28;20056;-74
2021/12/20 16:18:26;;;;;;;9.63;3.80;;;;;;;1.69;55.59;100936.44;10407156;28;20104;-74
2021/12/20 16:23:27;;;;;;;14.40;5.25;;;;;;;1.59;55.65;100929.66;10406261;28;20080;-73
2021/12/20 16:28:29;;;;;;;14.82;6.65;;;;;;;1.52;56.13;100932.28;10406369;28;20059;-74
2021/12/20 16:33:35;;;;;;;18.10;8.23;;;;;;;1.38;55.77;100940.94;10403662;28;20051;-76
2021/12/20 16:38:36;;;;;;;23.40;10.70;;;;;;;1.23;56.44;100941.06;10406275;28;20049;-76
2021/12/20 16:43:38;;;;;;;13.25;5.60;;;;;;;1.14;56.91;100946.25;10406620;28;20078;-76
2021/12/20 16:48:41;;;;;;;11.88;4.97;;;;;;;0.92;56.92;100949.81;10388303;28;20049;-76
2021/12/20 16:53:42;;;;;;;10.55;3.97;;;;;;;0.82;57.57;100948.13;10400868;28;20055;-75
2021/12/20 16:58:44;;;;;;;8.63;3.88;;;;;;;0.75;57.80;100949.00;10404171;28;20128;-75
2021/12/20 17:04:23;;;;;;;12.02;4.55;;;;;;;0.69;58.05;100943.88;10402381;28;20272;-75
2021/12/20 17:09:10;;;;;;;16.65;7.65;;;;;;;0.54;58.20;100947.34;10383840;28;20587;-75
2021/12/20 17:14:12;;;;;;;10.27;5.15;;;;;;;0.46;58.72;100935.41;10373421;28;20633;-75
2021/12/20 17:19:14;;;;;;;7.82;2.92;;;;;;;0.42;59.28;100944.81;10371528;28;20546;-75
2021/12/20 17:24:15;;;;;;;7.32;2.60;;;;;;;0.38;59.29;100948.25;10362234;28;20129;-75
2021/12/20 17:29:18;;;;;;;15.38;5.57;;;;;;;0.32;59.51;100953.44;10383602;28;20057;-76
2021/12/20 17:34:20;;;;;;;11.43;5.00;;;;;;;0.19;59.07;100958.59;10375724;28;20104;-75
2021/12/20 17:39:21;;;;;;;17.65;8.15;;;;;;;0.05;59.74;100971.50;10382313;28;20045;-75
2021/12/20 17:44:23;;;;;;;9.77;4.85;;;;;;;-0.04;59.67;100961.19;10378334;28;20506;-75
2021/12/20 17:49:27;;;;;;;11.48;4.40;;;;;;;-0.10;60.03;100968.91;10391568;28;20059;-75
2021/12/20 17:54:29;;;;;;;13.52;5.10;;;;;;;-0.13;60.23;100970.63;10396196;28;20049;-75
2021/12/20 17:59:31;;;;;;;11.77;4.43;;;;;;;-0.19;60.73;100968.94;10395177;28;20051;-75
2021/12/20 18:04:43;;;;;;;12.77;4.82;;;;;;;-0.27;60.79;100982.63;10393465;28;20045;-76
2021/12/20 18:09:44;;;;;;;14.73;5.80;;;;;;;-0.42;60.98;100989.47;10411491;28;20196;-75
2021/12/20 18:14:47;;;;;;;15.00;5.47;;;;;;;-0.45;61.21;100992.03;10409545;28;20652;-75
2021/12/20 18:19:49;;;;;;;13.00;5.43;;;;;;;-0.49;61.14;100997.13;10410447;28;20689;-75
2021/12/20 18:24:51;;;;;;;13.50;6.05;;;;;;;-0.55;61.51;100981.72;10409690;28;20068;-74
2021/12/20 18:29:53;;;;;;;15.60;6.07;;;;;;;-0.59;61.65;100997.97;10410473;28;20049;-76
2021/12/20 18:34:55;;;;;;;13.45;6.65;;;;;;;-0.61;61.83;101002.25;10409300;28;20168;-75
2021/12/20 18:39:57;;;;;;;14.95;6.45;;;;;;;-0.68;61.89;100996.28;10410059;28;20128;-76
2021/12/20 18:44:58;;;;;;;13.25;6.18;;;;;;;-0.78;62.16;100991.09;10408829;28;20041;-75
2021/12/20 18:50:06;;;;;;;12.32;6.30;;;;;;;-0.81;62.70;101004.78;10408384;28;20412;-74
2021/12/20 18:55:08;;;;;;;16.35;6.90;;;;;;;-0.87;62.58;101007.31;10406809;28;20049;-75
2021/12/20 19:00:10;;;;;;;16.05;7.05;;;;;;;-0.92;62.45;101016.72;10409110;28;20324;-74
2021/12/20 19:05:12;;;;;;;16.80;6.93;;;;;;;-0.97;62.74;101013.28;10408353;28;20484;-75
2021/12/20 19:10:17;;;;;;;15.52;7.80;;;;;;;-1.02;62.97;101009.81;10407395;28;20057;-75
2021/12/20 19:15:19;;;;;;;16.92;7.25;;;;;;;-1.00;62.76;101007.28;10408288;28;20140;-75
2021/12/20 19:20:21;;;;;;;16.40;7.15;;;;;;;-1.06;62.95;101010.66;10408002;28;20496;-74
2021/12/20 19:25:32;;;;;;;15.05;7.18;;;;;;;-1.09;63.14;101009.78;10407767;28;20064;-76
2021/12/20 19:30:34;;;;;;;18.10;8.32;;;;;;;-1.18;63.18;101010.59;10406181;28;20049;-75
2021/12/20 19:35:36;;;;;;;21.85;9.95;;;;;;;-1.22;63.39;101008.88;10404828;28;20125;-75
2021/12/20 19:40:41;;;;;;;18.10;9.80;;;;;;;-1.22;63.47;101006.31;10395985;28;20049;-75
2021/12/20 19:45:43;;;;;;;20.48;10.55;;;;;;;-1.23;63.60;101004.59;10405765;28;20133;-74
2021/12/20 19:50:46;;;;;;;17.55;8.55;;;;;;;-1.21;63.97;101002.91;10407092;28;20132;-75
2021/12/20 19:55:47;;;;;;;15.50;7.70;;;;;;;-1.26;63.93;101009.72;10406419;28;20299;-75
2021/12/20 20:01:09;;;;;;;;;;;;;;;-1.46;64.95;101008.75;10407626;28;20055;-75
2021/12/20 20:06:12;;;;;;;16.15;8.10;;;;;;;-1.34;64.04;101001.13;10405363;28;19921;-74
2021/12/20 20:11:14;;;;;;;18.40;6.78;;;;;;;-1.36;64.14;101003.69;10405320;28;20055;-76
2021/12/20 20:16:16;;;;;;;16.27;7.55;;;;;;;-1.42;64.00;100995.09;10406366;28;20303;-75
2021/12/20 20:21:17;;;;;;;16.05;7.30;;;;;;;-1.48;64.31;100993.34;10405675;28;20053;-75
2021/12/20 20:26:19;;;;;;;14.38;6.50;;;;;;;-1.49;64.35;100996.75;10404865;28;20104;-75
2021/12/20 20:31:22;;;;;;;10.68;6.10;;;;;;;-1.51;64.33;100998.44;10405207;28;20059;-76
2021/12/20 20:36:25;;;;;;;14.90;5.88;;;;;;;-1.52;64.36;101003.59;10404014;28;20854;-75
2021/12/20 20:41:26;;;;;;;20.10;7.43;;;;;;;-1.55;64.54;100998.44;10402130;28;20077;-75
2021/12/20 20:46:28;;;;;;;18.38;7.93;;;;;;;-1.60;64.48;101000.13;10403966;28;20072;-75
2021/12/20 20:51:30;;;;;;;15.85;7.05;;;;;;;-1.66;64.59;101000.94;10403520;28;20144;-74
2021/12/20 20:56:33;;;;;;;17.48;7.32;;;;;;;-1.66;64.88;100998.38;10402730;28;20083;-75
2021/12/20 21:01:36;;;;;;;17.90;7.35;;;;;;;-1.68;64.48;101000.06;10404419;28;20049;-74
2021/12/20 21:06:44;;;;;;;16.20;7.30;;;;;;;-1.73;64.95;101000.88;10397640;28;20466;-75
2021/12/20 21:11:49;;;;;;;14.50;6.35;;;;;;;-1.79;64.66;100998.25;10391684;28;20137;-74
2021/12/20 21:16:51;;;;;;;18.63;7.30;;;;;;;-1.81;64.99;100997.38;10404047;28;20061;-74
2021/12/20 21:21:53;;;;;;;18.75;7.45;;;;;;;-1.89;64.61;101005.03;10404603;28;20121;-74
2021/12/20 21:26:55;;;;;;;16.05;6.80;;;;;;;-2.00;64.94;101004.94;10405042;28;20490;-73
2021/12/20 21:31:59;;;;;;;21.13;8.20;;;;;;;-2.00;65.13;100997.25;10403593;28;20545;-73
2021/12/20 21:37:01;;;;;;;19.23;7.15;;;;;;;-2.05;64.94;100993.81;10375253;28;20046;-73
2021/12/20 21:42:03;;;;;;;20.38;6.45;;;;;;;-2.08;65.21;100991.22;10388239;28;20055;-72
2021/12/20 21:47:05;;;;;;;17.73;6.90;;;;;;;-2.07;64.96;101000.63;10402004;28;20463;-73
2021/12/20 21:52:06;;;;;;;18.92;7.32;;;;;;;-2.10;65.15;100992.91;10403343;28;20136;-73
2021/12/20 21:57:08;;;;;;;14.65;6.53;;;;;;;-2.12;65.17;100998.84;10400565;28;20140;-74
2021/12/20 22:02:10;;;;;;;15.60;6.65;;;;;;;-2.17;65.11;101003.09;10403483;28;20512;-73
2021/12/20 22:07:11;;;;;;;16.13;6.68;;;;;;;-2.20;65.22;100998.81;10402622;28;20132;-73
2021/12/20 22:12:15;;;;;;;17.38;7.15;;;;;;;-2.21;65.17;100996.22;10399247;28;20158;-71
2021/12/20 22:17:16;;;;;;;13.70;6.85;;;;;;;-2.28;65.10;100999.56;10384692;28;20058;-66
2021/12/20 22:22:21;;;;;;;16.45;6.65;;;;;;;-2.45;65.42;101001.13;10371442;28;20104;-67
2021/12/20 22:27:23;;;;;;;14.13;6.53;;;;;;;-2.41;65.71;101002.88;10374039;28;20091;-67
2021/12/20 22:32:25;;;;;;;12.45;5.88;;;;;;;-2.42;65.64;101006.28;10388901;28;20383;-67
2021/12/20 22:37:27;;;;;;;21.30;6.95;;;;;;;-2.43;65.46;100999.44;10397359;28;20077;-67
2021/12/20 22:42:29;;;;;;;15.88;6.53;;;;;;;-2.52;65.51;101015.56;10399970;28;20082;-67
2021/12/20 22:47:31;;;;;;;13.05;6.30;;;;;;;-2.59;65.51;101008.66;10408368;28;20053;-67
2021/12/20 22:52:34;;;;;;;15.00;5.85;;;;;;;-2.61;65.42;101007.78;10406461;28;20077;-67
2021/12/20 22:57:36;;;;;;;13.48;5.95;;;;;;;-2.63;65.57;101014.59;10407422;28;20077;-67
2021/12/20 23:02:38;;;;;;;11.90;6.00;;;;;;;-2.65;65.65;101010.31;10400308;28;20133;-67
2021/12/20 23:07:42;;;;;;;13.77;5.68;;;;;;;-2.66;65.92;101006.03;10390884;28;20065;-67
2021/12/20 23:17:55;;;;;;;15.10;6.27;;;;;;;-2.73;65.77;100991.47;10405408;28;20049;-67
2021/12/20 23:23:01;;;;;;;15.70;8.23;;;;;;;-2.71;65.81;100993.16;10405711;28;20045;-68
2021/12/20 23:28:07;;;;;;;22.35;11.02;;;;;;;-2.75;65.70;100986.31;10407971;28;20490;-67
2021/12/20 23:33:10;;;;;;;20.02;9.48;;;;;;;-2.78;65.75;100983.72;10404373;28;20053;-67